KPAOKMRY

Guest
Details From KPAO - Palo Alto
To KMRY - Monterey Peninsula
Flight Number -
Tags Generated
Created
Modified
Stats Distance 54 nm / 100 km
Max Altitude 0 ft / 0 m
Waypoints 2
Social Downloads 1
Likes 0
Share VATSIM

Download

Looking for another format? Having issues loading an existing format? Contact us
Advertisement - Login to hide

Notes

Generated

Route

KPAO KMRY

ID Type Via Altitude Latitude Longitude Leg Dist Tot Dist Heading (true) Name
O KPAO APT - 0 ft / 0 m 37.45803˚ -122.11199˚ - 0 nm - Palo Alto
O KMRY APT - 0 ft / 0 m 36.58859˚ -121.84466˚ 53 nm 53 nm 166° / 166° Monterey Peninsula

Altitude Profile

Advertisement - Login to hide

KPAO

Details ICAO KPAO (PAO)
Name Palo Alto
Region United States
Timezone America/Los_Angeles (UTC-8.0)
Stats Elevation 4 ft / 1 m (AMSL)
Location 37.460889° -122.114823°
Runways 1
Magnetic Variation 13.390° E

METAR

KPAO 141447Z 00000KT 10SM SKC 02/01 A3008

Decode

TAF

Not found

Departure Runways

ID Width Length Bearing (true) Bearing (mag) Surface Threshold Offset Overrun Length
31 75 ft / 23 m 2,659 ft / 810 m 321.81° 308.42° Asphalt 213 ft / 65 m 0 ft / 0 m
XXX 75 ft / 23 m 2,659 ft / 810 m 141.80° 128.41° Asphalt 0 ft / 0 m 197 ft / 60 m

KMRY

Details ICAO KMRY (MRY)
Name Monterey Peninsula
Region United States
Timezone America/Los_Angeles (UTC-8.0)
Stats Elevation 257 ft / 78 m (AMSL)
Location 36.586916° -121.841927°
Runways 2
Magnetic Variation 13.159° E

METAR

KMRY 141454Z 10005KT 10SM CLR 08/M02 A3005 RMK AO2 SLP189 T00831017 53011

Decode

TAF

TAF KMRY 141120Z 1412/1512 11005KT P6SM FEW200 FM141500 VRB04KT P6SM FEW200 FM142000 31005KT P6SM SKC FM150400 10004KT P6SM SKC

Decode

Destination Runways

ID Width Length Bearing (true) Bearing (mag) Surface Threshold Offset Overrun Length
10L 59 ft / 18 m 3,508 ft / 1,069 m 112.85° 99.69° Asphalt 0 ft / 0 m 230 ft / 70 m
10R 151 ft / 46 m 7,605 ft / 2,318 m 112.84° 99.68° Asphalt 0 ft / 0 m 174 ft / 53 m
28L 151 ft / 46 m 7,605 ft / 2,318 m 292.85° 279.69° Asphalt 1,001 ft / 305 m 190 ft / 58 m
28R 59 ft / 18 m 3,508 ft / 1,069 m 292.85° 279.69° Asphalt 0 ft / 0 m 0 ft / 0 m

Approach Navaids

Runway Type Ident Frequency Range Bearing (true) Bearing (mag) Slope Elevation
10R Localiser IMRY 110.70 MHz 18 nm / 33 km 112.86° 99.70° - 246 ft / 75 m (AMSL)
10R Glidescope IMRY 110.70 MHz 10 nm / 19 km 112.85° 99.69° 3.00° 162 ft / 49 m (AMSL)
10R DME IMRY 110.70 MHz 18 nm / 33 km - - - 267 ft / 81 m (AMSL)
28L Localiser IMTB 110.70 MHz 18 nm / 33 km 292.84° 279.68° - 127 ft / 39 m (AMSL)
28L DME IMTB 110.70 MHz 18 nm / 33 km - - - 155 ft / 47 m (AMSL)